Time;durP1;ratioP1;P1;durP2;ratioP2;P2;SDS_P1;SDS_P2;PMS_P1;PMS_P2;Temp;Humidity;BMP_temperature;BMP_pressure;BME280_temperature;BME280_humidity;BME280_pressure;Samples;Min_cycle;Max_cycle;Signal;HPM_P1;HPM_P2
2022/07/25 00:01:00;;;;;;;;;14.75;14.75;;;;;-146.44;100.00;58906.56;5077124;28;45647;-64
2022/07/25 00:03:26;;;;;;;;;13.00;13.00;;;;;-146.44;100.00;58906.56;5076926;28;45513;-64
2022/07/25 00:05:51;;;;;;;;;17.00;17.00;;;;;-146.44;100.00;58906.56;5077303;28;45816;-64
2022/07/25 00:08:17;;;;;;;;;14.50;14.50;;;;;-146.44;100.00;58906.56;5076127;27;45486;-65
2022/07/25 00:10:43;;;;;;;;;14.25;14.25;;;;;-146.44;100.00;58906.56;5077091;28;45496;-64
2022/07/25 00:13:08;;;;;;;;;16.50;15.25;;;;;-146.44;100.00;58906.56;5076984;27;45563;-64
2022/07/25 00:15:34;;;;;;;;;15.75;15.25;;;;;-146.44;100.00;58906.56;5077044;28;45446;-64
2022/07/25 00:17:59;;;;;;;;;13.25;13.00;;;;;-146.44;100.00;58906.56;5077009;28;45465;-64
2022/07/25 00:20:24;;;;;;;;;13.50;13.50;;;;;-146.44;100.00;58906.56;5077007;28;46211;-64
2022/07/25 00:22:50;;;;;;;;;15.50;15.50;;;;;-146.44;100.00;58906.56;5076715;28;45514;-64
2022/07/25 00:25:15;;;;;;;;;15.50;14.25;;;;;-146.44;100.00;58906.56;5076859;28;45551;-64
2022/07/25 00:27:40;;;;;;;;;15.50;15.00;;;;;-146.44;100.00;58906.56;5076869;28;45513;-64
2022/07/25 00:30:06;;;;;;;;;11.75;11.75;;;;;-146.44;100.00;58906.56;5076653;28;46055;-64
2022/07/25 00:32:32;;;;;;;;;16.50;16.50;;;;;-146.44;100.00;58906.56;5076680;28;45503;-64
2022/07/25 00:34:57;;;;;;;;;11.25;11.25;;;;;-146.44;100.00;58906.56;5076680;28;45441;-64
2022/07/25 00:37:22;;;;;;;;;14.00;14.00;;;;;-146.44;100.00;58906.56;5076884;28;45480;-64
2022/07/25 00:39:48;;;;;;;;;12.00;12.00;;;;;-146.44;100.00;58906.56;5076461;28;46198;-64
2022/07/25 00:42:13;;;;;;;;;17.50;16.00;;;;;-146.44;100.00;58906.56;5076562;28;45416;-65
2022/07/25 00:44:39;;;;;;;;;15.25;12.00;;;;;-146.44;100.00;58906.56;5076664;27;45392;-64
2022/07/25 00:47:04;;;;;;;;;16.50;13.50;;;;;-146.44;100.00;58906.56;5076621;28;45375;-64
2022/07/25 00:49:30;;;;;;;;;15.50;14.50;;;;;-146.44;100.00;58906.56;5076484;28;45983;-65
2022/07/25 00:51:55;;;;;;;;;15.25;15.25;;;;;-146.44;100.00;58906.56;5076340;28;45312;-65
2022/07/25 00:54:21;;;;;;;;;13.00;13.00;;;;;-146.44;100.00;58906.56;5076356;28;45378;-64
2022/07/25 00:56:48;;;;;;;;;14.25;13.25;;;;;-146.44;100.00;58906.56;5076432;28;45416;-64
2022/07/25 00:59:13;;;;;;;;;14.50;14.50;;;;;-146.44;100.00;58906.56;5076273;28;46291;-65
2022/07/25 01:01:40;;;;;;;;;13.75;13.75;;;;;-146.44;100.00;58906.56;5076219;28;45425;-64
2022/07/25 01:04:05;;;;;;;;;13.00;13.00;;;;;-146.44;100.00;58906.56;5076304;27;45464;-64
2022/07/25 01:06:32;;;;;;;;;16.50;14.00;;;;;-146.44;100.00;58906.56;5076283;28;45618;-64
2022/07/25 01:08:57;;;;;;;;;17.75;15.50;;;;;-146.44;100.00;58906.56;5076093;28;46057;-64
2022/07/25 01:11:23;;;;;;;;;15.25;14.50;;;;;-146.44;100.00;58906.56;5076046;28;45481;-64
2022/07/25 01:13:49;;;;;;;;;15.00;14.50;;;;;-146.44;100.00;58906.56;5076367;28;45375;-64
2022/07/25 01:16:14;;;;;;;;;13.00;13.00;;;;;-146.44;100.00;58906.56;5076014;27;45485;-64
2022/07/25 01:18:40;;;;;;;;;14.25;14.25;;;;;-146.44;100.00;58906.56;5074688;28;46210;-64
2022/07/25 01:21:05;;;;;;;;;15.00;15.00;;;;;-146.44;100.00;58906.56;5076047;28;45421;-64
2022/07/25 01:23:31;;;;;;;;;14.75;14.75;;;;;-146.44;100.00;58906.56;5076117;28;45521;-64
2022/07/25 01:25:57;;;;;;;;;16.50;15.50;;;;;-146.44;100.00;58906.56;5076054;28;45429;-64
2022/07/25 01:28:22;;;;;;;;;14.25;12.75;;;;;-146.44;100.00;58906.56;5075875;28;45454;-64
2022/07/25 01:30:47;;;;;;;;;13.25;13.25;;;;;-146.44;100.00;58906.56;5076147;28;45437;-64
2022/07/25 01:33:18;;;;;;;;;12.50;12.50;;;;;-146.44;100.00;58906.56;5076004;28;45500;-64
2022/07/25 01:35:44;;;;;;;;;12.25;12.25;;;;;-146.44;100.00;58906.56;5075814;28;45405;-64
2022/07/25 01:38:10;;;;;;;;;12.00;12.00;;;;;-146.44;100.00;58906.56;5075765;27;46962;-64
2022/07/25 01:40:36;;;;;;;;;14.75;13.25;;;;;-146.44;100.00;58906.56;5075578;27;45390;-64
2022/07/25 01:43:01;;;;;;;;;12.00;11.50;;;;;-146.44;100.00;58906.56;5075649;28;45453;-64
2022/07/25 01:45:27;;;;;;;;;13.00;13.00;;;;;-146.44;100.00;58906.56;5075707;28;45571;-64
2022/07/25 01:47:52;;;;;;;;;13.50;12.50;;;;;-146.44;100.00;58906.56;5075584;28;46408;-64
2022/07/25 01:50:18;;;;;;;;;11.00;11.00;;;;;-146.44;100.00;58906.56;5075625;28;45374;-64
2022/07/25 01:52:43;;;;;;;;;14.25;13.00;;;;;-146.44;100.00;58906.56;5075856;28;45512;-64
2022/07/25 01:55:09;;;;;;;;;11.25;11.25;;;;;-146.44;100.00;58906.56;5075622;28;45487;-64
2022/07/25 01:57:34;;;;;;;;;10.50;8.75;;;;;-146.44;100.00;58906.56;5075320;28;46272;-65
2022/07/25 02:00:00;;;;;;;;;10.00;10.00;;;;;-146.44;100.00;58906.56;5075571;27;45416;-64
2022/07/25 02:02:25;;;;;;;;;10.00;9.00;;;;;-146.44;100.00;58906.56;5075361;28;45464;-64
2022/07/25 02:04:51;;;;;;;;;14.00;12.00;;;;;-146.44;100.00;58906.56;5075670;28;45366;-64
2022/07/25 02:07:16;;;;;;;;;13.25;12.25;;;;;-146.44;100.00;58906.56;5075363;28;46566;-64
2022/07/25 02:09:41;;;;;;;;;10.75;10.75;;;;;-146.44;100.00;58906.56;5075450;28;45408;-64
2022/07/25 02:12:07;;;;;;;;;11.50;11.50;;;;;-146.44;100.00;58906.56;5075573;28;45389;-64
2022/07/25 02:14:33;;;;;;;;;10.50;10.50;;;;;-146.44;100.00;58906.56;5075227;28;45651;-64
2022/07/25 02:16:58;;;;;;;;;11.25;11.25;;;;;-146.44;100.00;58906.56;5077871;28;45322;-65
2022/07/25 02:19:24;;;;;;;;;10.25;9.25;;;;;-146.44;100.00;58906.56;5079087;28;45556;-64
2022/07/25 02:21:49;;;;;;;;;13.00;12.00;;;;;-146.44;100.00;58906.56;5078857;28;45790;-64
2022/07/25 02:24:15;;;;;;;;;13.00;13.00;;;;;-146.44;100.00;58906.56;5078896;28;45428;-64
2022/07/25 02:26:40;;;;;;;;;13.00;11.25;;;;;-146.44;100.00;58906.56;5078739;28;45362;-64
2022/07/25 02:29:06;;;;;;;;;8.50;8.50;;;;;-146.44;100.00;58906.56;5078607;28;45432;-64
2022/07/25 02:31:31;;;;;;;;;10.00;10.00;;;;;-146.44;100.00;58906.56;5078756;28;45438;-64
2022/07/25 02:33:56;;;;;;;;;10.00;9.00;;;;;-146.44;100.00;58906.56;5078610;28;45421;-64
2022/07/25 02:36:22;;;;;;;;;12.00;12.00;;;;;-146.44;100.00;58906.56;5078533;28;46441;-64
2022/07/25 02:38:47;;;;;;;;;14.00;12.50;;;;;-146.44;100.00;58906.56;5078622;28;45440;-64
2022/07/25 02:41:13;;;;;;;;;14.50;13.00;;;;;-146.44;100.00;58906.56;5078673;27;45540;-64
2022/07/25 02:43:38;;;;;;;;;10.50;10.50;;;;;-146.44;100.00;58906.56;5078781;27;45607;-64
2022/07/25 02:46:04;;;;;;;;;12.25;11.00;;;;;-146.44;100.00;58906.56;5078340;28;45973;-64
2022/07/25 02:48:29;;;;;;;;;12.00;11.25;;;;;-146.44;100.00;58906.56;5078441;27;45440;-64
2022/07/25 02:50:54;;;;;;;;;10.00;9.00;;;;;-146.44;100.00;58906.56;5078432;28;45390;-64
2022/07/25 02:53:20;;;;;;;;;10.75;10.75;;;;;-146.44;100.00;58906.56;5078462;28;45494;-64
2022/07/25 02:55:45;;;;;;;;;9.25;9.25;;;;;-146.44;100.00;58906.56;5078180;28;46182;-64
2022/07/25 02:58:10;;;;;;;;;7.50;7.50;;;;;-146.44;100.00;58906.56;5078204;28;45422;-64
2022/07/25 03:00:36;;;;;;;;;9.25;9.25;;;;;-146.44;100.00;58906.56;5078396;28;45512;-64
2022/07/25 03:03:02;;;;;;;;;7.50;7.00;;;;;-146.44;100.00;58906.56;5078074;28;45605;-64
2022/07/25 03:05:27;;;;;;;;;7.25;7.25;;;;;-146.44;100.00;58906.56;5078178;28;45584;-64
2022/07/25 03:07:53;;;;;;;;;7.50;7.25;;;;;-146.44;100.00;58906.56;5078193;28;45655;-64
2022/07/25 03:10:18;;;;;;;;;7.00;7.00;;;;;-146.44;100.00;58906.56;5078134;28;45346;-64
2022/07/25 03:12:44;;;;;;;;;5.50;5.50;;;;;-146.44;100.00;58906.56;5078178;28;45672;-64
2022/07/25 03:15:10;;;;;;;;;6.50;4.75;;;;;-146.44;100.00;58906.56;5077782;28;46486;-64
2022/07/25 03:17:37;;;;;;;;;5.20;5.20;;;;;-146.44;100.00;58906.56;5077971;27;45398;-64
2022/07/25 03:20:04;;;;;;;;;6.50;6.50;;;;;-146.44;100.00;58906.56;5078093;27;45468;-64
2022/07/25 03:22:30;;;;;;;;;6.00;5.25;;;;;-146.44;100.00;58906.56;5077732;28;45565;-64
2022/07/25 03:24:55;;;;;;;;;5.00;5.00;;;;;-146.44;100.00;58906.56;5076453;28;45442;-64
2022/07/25 03:27:21;;;;;;;;;3.00;3.00;;;;;-146.44;100.00;58906.56;5076663;28;45502;-64
2022/07/25 03:29:46;;;;;;;;;5.00;5.00;;;;;-146.44;100.00;58906.56;5076648;28;45658;-64
2022/07/25 03:32:11;;;;;;;;;4.50;4.50;;;;;-146.44;100.00;58906.56;5077814;28;45710;-64
2022/07/25 03:34:37;;;;;;;;;3.00;3.00;;;;;-146.44;100.00;58906.56;5076417;27;46482;-64
2022/07/25 03:37:02;;;;;;;;;4.00;4.00;;;;;-146.44;100.00;58906.56;5077705;28;45473;-64
2022/07/25 03:39:28;;;;;;;;;4.75;4.75;;;;;-146.44;100.00;58906.56;5077839;28;45393;-64
2022/07/25 03:41:54;;;;;;;;;3.25;3.25;;;;;-146.44;100.00;58906.56;5076478;28;45593;-64
2022/07/25 03:44:21;;;;;;;;;3.00;3.00;;;;;-146.44;100.00;58906.56;5077370;28;46160;-64
2022/07/25 03:46:46;;;;;;;;;3.00;3.00;;;;;-146.44;100.00;58906.56;5077533;28;45532;-65
2022/07/25 03:49:12;;;;;;;;;4.00;4.00;;;;;-146.44;100.00;58906.56;5077584;27;45472;-64
2022/07/25 03:51:37;;;;;;;;;4.75;4.75;;;;;-146.44;100.00;58906.56;5077604;28;45505;-64
2022/07/25 03:54:04;;;;;;;;;2.25;2.25;;;;;-146.44;100.00;58906.56;5076338;27;45728;-64
2022/07/25 03:56:50;;;;;;;;;4.00;4.00;;;;;-146.44;100.00;58906.56;5077256;28;45457;-64
2022/07/25 03:59:18;;;;;;;;;3.00;3.00;;;;;-146.44;100.00;58906.56;5077200;27;45456;-64
2022/07/25 04:01:46;;;;;;;;;2.00;2.00;;;;;-146.44;100.00;58906.56;5077421;27;45434;-64
2022/07/25 04:04:12;;;;;;;;;2.25;2.25;;;;;-146.44;100.00;58906.56;5077208;27;45414;-64
2022/07/25 04:06:38;;;;;;;;;4.25;4.25;;;;;-146.44;100.00;58906.56;5077240;27;45525;-64
2022/07/25 04:09:05;;;;;;;;;3.40;3.00;;;;;-146.44;100.00;58906.56;5077261;28;45420;-64
2022/07/25 04:11:31;;;;;;;;;2.25;2.25;;;;;-146.44;100.00;58906.56;5077356;28;45566;-64
2022/07/25 04:13:57;;;;;;;;;3.75;3.75;;;;;-146.44;100.00;58906.56;5077081;27;45557;-64
2022/07/25 04:16:23;;;;;;;;;2.00;2.00;;;;;-146.44;100.00;58906.56;5076854;28;45536;-64
2022/07/25 04:18:49;;;;;;;;;3.50;3.50;;;;;-146.44;100.00;58906.56;5077165;28;45382;-65
2022/07/25 04:21:15;;;;;;;;;3.75;3.00;;;;;-146.44;100.00;58906.56;5077015;28;45612;-64
2022/07/25 04:23:40;;;;;;;;;3.00;3.00;;;;;-146.44;100.00;58906.56;5076720;27;46290;-64
2022/07/25 04:26:05;;;;;;;;;3.25;2.25;;;;;-146.44;100.00;58906.56;5076804;28;46467;-65
2022/07/25 04:28:31;;;;;;;;;1.75;1.75;;;;;-146.44;100.00;58906.56;5077202;28;45456;-65
2022/07/25 04:30:57;;;;;;;;;3.00;3.00;;;;;-146.44;100.00;58906.56;5077072;28;45433;-64
2022/07/25 04:33:22;;;;;;;;;2.50;2.50;;;;;-146.44;100.00;58906.56;5076843;28;45500;-64
2022/07/25 04:35:47;;;;;;;;;3.75;3.00;;;;;-146.44;100.00;58906.56;5076696;28;45635;-65
2022/07/25 04:38:13;;;;;;;;;3.00;3.00;;;;;-146.44;100.00;58906.56;5076636;28;45462;-64
2022/07/25 04:40:39;;;;;;;;;2.00;2.00;;;;;-146.44;100.00;58906.56;5076995;28;45493;-64
2022/07/25 04:43:04;;;;;;;;;2.00;2.00;;;;;-146.44;100.00;58906.56;5076379;28;46086;-65
2022/07/25 04:45:30;;;;;;;;;1.25;1.25;;;;;-146.44;100.00;58906.56;5076542;28;45469;-65
2022/07/25 04:47:56;;;;;;;;;1.40;1.40;;;;;-146.44;100.00;58906.56;5076671;28;45452;-65
2022/07/25 04:50:21;;;;;;;;;1.25;1.25;;;;;-146.44;100.00;58906.56;5076716;27;45438;-65
2022/07/25 04:52:47;;;;;;;;;3.25;3.25;;;;;-146.44;100.00;58906.56;5076577;28;45909;-65
2022/07/25 04:55:13;;;;;;;;;4.00;3.00;;;;;-146.44;100.00;58906.56;5076327;27;45522;-66
2022/07/25 04:57:38;;;;;;;;;2.75;2.75;;;;;-146.44;100.00;58906.56;5076569;27;45480;-64
2022/07/25 05:00:06;;;;;;;;;3.00;2.00;;;;;-146.44;100.00;58906.56;5076498;28;45539;-64
2022/07/25 05:02:32;;;;;;;;;3.00;3.00;;;;;-146.44;100.00;58906.56;5074825;28;48159;-64
2022/07/25 05:04:57;;;;;;;;;2.75;2.75;;;;;-146.44;100.00;58906.56;5076453;27;45421;-64
2022/07/25 05:07:22;;;;;;;;;3.50;2.75;;;;;-146.44;100.00;58906.56;5076371;28;45392;-64
2022/07/25 05:09:48;;;;;;;;;2.00;2.00;;;;;-146.44;100.00;58906.56;5076325;28;45607;-64
2022/07/25 05:12:13;;;;;;;;;3.25;2.25;;;;;-146.44;100.00;58906.56;5076090;28;45547;-64
2022/07/25 05:14:39;;;;;;;;;3.75;3.75;;;;;-146.44;100.00;58906.56;5075970;28;45391;-64
2022/07/25 05:17:04;;;;;;;;;5.00;2.00;;;;;-146.44;100.00;58906.56;5076179;28;45763;-64
2022/07/25 05:19:29;;;;;;;;;2.00;2.00;;;;;-146.44;100.00;58906.56;5076249;28;45386;-64
2022/07/25 05:21:56;;;;;;;;;3.00;3.00;;;;;-146.44;100.00;58906.56;5075708;28;45447;-64
2022/07/25 05:24:24;;;;;;;;;3.00;3.00;;;;;-146.44;100.00;58906.56;5075873;28;45405;-64
2022/07/25 05:26:50;;;;;;;;;2.00;2.00;;;;;-146.44;100.00;58906.56;5076206;27;45503;-64
2022/07/25 05:29:15;;;;;;;;;3.50;2.50;;;;;-146.44;100.00;58906.56;5076111;27;45587;-64
2022/07/25 05:31:41;;;;;;;;;2.25;2.25;;;;;-146.44;100.00;58906.56;5075723;28;46121;-64
2022/07/25 05:34:06;;;;;;;;;3.00;3.00;;;;;-146.44;100.00;58906.56;5075688;28;45474;-64
2022/07/25 05:36:32;;;;;;;;;3.00;3.00;;;;;-146.44;100.00;58906.56;5075883;28;45739;-64
2022/07/25 05:38:57;;;;;;;;;2.00;2.00;;;;;-146.44;100.00;58906.56;5075985;28;45401;-64
2022/07/25 05:41:23;;;;;;;;;2.00;2.00;;;;;-146.44;100.00;58906.56;5075620;28;45529;-65
2022/07/25 05:43:48;;;;;;;;;3.00;3.00;;;;;-146.44;100.00;58906.56;5076674;27;45608;-64
2022/07/25 05:46:14;;;;;;;;;3.00;2.25;;;;;-146.44;100.00;58906.56;5075840;28;45537;-64
2022/07/25 05:48:41;;;;;;;;;2.50;2.50;;;;;-146.44;100.00;58906.56;5075603;28;45454;-64
2022/07/25 05:51:06;;;;;;;;;2.00;2.00;;;;;-146.44;100.00;58906.56;5090572;27;45453;-65
2022/07/25 05:53:31;;;;;;;;;5.75;3.25;;;;;-146.44;100.00;58906.56;5075600;27;45468;-65
2022/07/25 05:55:57;;;;;;;;;3.25;3.25;;;;;-146.44;100.00;58906.56;5075600;28;45421;-64
2022/07/25 05:58:22;;;;;;;;;2.00;2.00;;;;;-146.44;100.00;58906.56;5075365;28;49690;-64
2022/07/25 06:00:49;;;;;;;;;2.50;2.50;;;;;-146.44;100.00;58906.56;5075654;28;45605;-64
2022/07/25 06:03:16;;;;;;;;;2.00;2.00;;;;;-146.44;100.00;58906.56;5075316;28;45508;-64
2022/07/25 06:05:42;;;;;;;;;3.25;3.25;;;;;-146.44;100.00;58906.56;5075685;27;45406;-63
2022/07/25 06:08:07;;;;;;;;;4.50;4.50;;;;;-146.44;100.00;58906.56;5075664;27;45552;-64
2022/07/25 06:10:32;;;;;;;;;4.00;4.00;;;;;-146.44;100.00;58906.56;5075246;28;45292;-64
2022/07/25 06:12:57;;;;;;;;;2.00;2.00;;;;;-146.44;100.00;58906.56;5075392;28;45370;-63
2022/07/25 06:15:23;;;;;;;;;3.25;3.00;;;;;-146.44;100.00;58906.56;5075242;28;45338;-63
2022/07/25 06:17:48;;;;;;;;;3.25;3.25;;;;;-146.44;100.00;58906.56;5075376;28;45453;-65
2022/07/25 06:20:14;;;;;;;;;2.50;2.50;;;;;-146.44;100.00;58906.56;5075292;28;45421;-65
2022/07/25 06:22:39;;;;;;;;;3.00;3.00;;;;;-146.44;100.00;58906.56;5075142;28;45456;-64
2022/07/25 06:25:06;;;;;;;;;2.75;2.75;;;;;-146.44;100.00;58906.56;5075433;28;45367;-65
2022/07/25 06:27:31;;;;;;;;;3.50;3.00;;;;;-146.44;100.00;58906.56;5075156;28;45437;-64
2022/07/25 06:29:57;;;;;;;;;4.00;2.50;;;;;-146.44;100.00;58906.56;5074984;27;45441;-65
2022/07/25 06:32:22;;;;;;;;;4.00;3.25;;;;;-146.44;100.00;58906.56;5075084;28;45437;-65
2022/07/25 06:34:48;;;;;;;;;4.75;2.00;;;;;-146.44;100.00;58906.56;5075184;28;45492;-64
2022/07/25 06:37:13;;;;;;;;;3.00;3.00;;;;;-146.44;100.00;58906.56;5075117;28;45455;-64
2022/07/25 06:39:38;;;;;;;;;5.00;3.75;;;;;-146.44;100.00;58906.56;5073655;28;48096;-64
2022/07/25 06:42:04;;;;;;;;;3.00;3.00;;;;;-146.44;100.00;58906.56;5074932;28;45593;-64
2022/07/25 06:44:33;;;;;;;;;3.00;3.00;;;;;-146.44;100.00;58906.56;5074862;27;45366;-64
2022/07/25 06:47:02;;;;;;;;;3.25;3.25;;;;;-146.44;100.00;58906.56;5074978;28;45592;-64
2022/07/25 06:49:27;;;;;;;;;5.00;4.00;;;;;-146.44;100.00;58906.56;5074686;27;46300;-64
2022/07/25 06:51:53;;;;;;;;;3.25;3.25;;;;;-146.44;100.00;58906.56;5074701;27;45481;-64
2022/07/25 06:54:18;;;;;;;;;3.75;3.75;;;;;-146.44;100.00;58906.56;5074825;28;45408;-64
2022/07/25 06:56:44;;;;;;;;;5.00;5.00;;;;;-146.44;100.00;58906.56;5074902;28;45417;-64
2022/07/25 06:59:10;;;;;;;;;3.00;2.25;;;;;-146.44;100.00;58906.56;5074584;28;46327;-65
2022/07/25 07:01:35;;;;;;;;;5.50;4.00;;;;;-146.44;100.00;58906.56;5075440;28;45408;-64
2022/07/25 07:04:01;;;;;;;;;3.25;3.25;;;;;-146.44;100.00;58906.56;5077993;28;45394;-64
2022/07/25 07:06:27;;;;;;;;;2.25;2.25;;;;;-146.44;100.00;58906.56;5078178;28;45389;-64
2022/07/25 07:08:52;;;;;;;;;5.00;3.50;;;;;-146.44;100.00;58906.56;5078118;28;46137;-64
2022/07/25 07:11:18;;;;;;;;;2.75;2.75;;;;;-146.44;100.00;58906.56;5076801;28;45411;-64
2022/07/25 07:13:43;;;;;;;;;4.75;3.75;;;;;-146.44;100.00;58906.56;5078030;28;45385;-64
2022/07/25 07:16:09;;;;;;;;;4.50;3.00;;;;;-146.44;100.00;58906.56;5077809;28;45526;-64
2022/07/25 07:18:35;;;;;;;;;3.00;3.00;;;;;-146.44;100.00;58906.56;5077684;28;45807;-64
2022/07/25 07:21:01;;;;;;;;;3.25;3.25;;;;;-146.44;100.00;58906.56;5077618;28;45492;-65
2022/07/25 07:23:26;;;;;;;;;2.75;2.75;;;;;-146.44;100.00;58906.56;5077726;28;45421;-64
2022/07/25 07:25:52;;;;;;;;;3.50;3.50;;;;;-146.44;100.00;58906.56;5077606;28;45492;-64
2022/07/25 07:28:18;;;;;;;;;4.25;4.25;;;;;-146.44;100.00;58906.56;5076275;28;47103;-64
2022/07/25 07:30:43;;;;;;;;;4.00;4.00;;;;;-146.44;100.00;58906.56;5077428;27;45417;-65
2022/07/25 07:33:08;;;;;;;;;4.50;4.50;;;;;-146.44;100.00;58906.56;5077552;28;45454;-64
2022/07/25 07:35:34;;;;;;;;;5.50;4.50;;;;;-146.44;100.00;58906.56;5077373;28;45463;-64
2022/07/25 07:37:59;;;;;;;;;4.75;4.75;;;;;-146.44;100.00;58906.56;5077303;28;47023;-64
2022/07/25 07:40:25;;;;;;;;;3.75;3.00;;;;;-146.44;100.00;58906.56;5077170;28;45460;-64
2022/07/25 07:42:52;;;;;;;;;4.50;4.50;;;;;-146.44;100.00;58906.56;5077874;27;45454;-64
2022/07/25 07:45:19;;;;;;;;;4.00;4.00;;;;;-146.44;100.00;58906.56;5076451;28;45462;-64
2022/07/25 07:47:48;;;;;;;;;3.50;2.50;;;;;-146.44;100.00;58906.56;5077254;27;46136;-64
2022/07/25 07:50:18;;;;;;;;;4.00;4.00;;;;;-146.44;100.00;58906.56;5077462;27;45379;-64
2022/07/25 07:52:44;;;;;;;;;3.00;3.00;;;;;-146.44;100.00;58906.56;5077547;27;45428;-64
2022/07/25 07:57:55;;;;;;;;;5.50;5.50;;;;;-146.44;100.00;58906.56;5077204;28;45689;-64
2022/07/25 08:00:21;;;;;;;;;4.20;4.20;;;;;-146.44;100.00;58906.56;5077256;27;45434;-64
2022/07/25 08:02:49;;;;;;;;;5.00;3.75;;;;;-146.44;100.00;58906.56;5077095;27;45441;-64
2022/07/25 08:05:31;;;;;;;;;1.25;1.25;;;;;-146.44;100.00;58906.56;5075995;27;45406;-64
2022/07/25 08:07:58;;;;;;;;;3.75;2.50;;;;;-146.44;100.00;58906.56;5076982;27;45508;-64
2022/07/25 08:10:26;;;;;;;;;2.40;2.20;;;;;-146.44;100.00;58906.56;5077096;27;45483;-64
2022/07/25 08:12:52;;;;;;;;;3.00;3.00;;;;;-146.44;100.00;58906.56;5076675;28;45421;-64
2022/07/25 08:15:19;;;;;;;;;2.50;2.50;;;;;-146.44;100.00;58906.56;5076535;27;45446;-64
2022/07/25 08:17:45;;;;;;;;;2.50;2.50;;;;;-146.44;100.00;58906.56;5076714;28;45513;-64
2022/07/25 08:20:12;;;;;;;;;3.00;2.00;;;;;-146.44;100.00;58906.56;5075435;28;45388;-64
2022/07/25 08:22:44;;;;;;;;;3.40;3.40;;;;;-146.44;100.00;58906.56;5076609;27;45555;-64
2022/07/25 08:25:15;;;;;;;;;4.00;3.00;;;;;-146.44;100.00;58906.56;5076841;27;45425;-65
2022/07/25 08:27:41;;;;;;;;;3.00;3.00;;;;;-146.44;100.00;58906.56;5076566;27;45371;-65
2022/07/25 08:30:08;;;;;;;;;2.00;2.00;;;;;-146.44;100.00;58906.56;5077069;28;45495;-65
2022/07/25 08:32:45;;;;;;;;;2.00;2.00;;;;;-146.44;100.00;58906.56;5077038;28;45363;-64
2022/07/25 08:35:10;;;;;;;;;3.50;2.50;;;;;-146.44;100.00;58906.56;5076550;27;45470;-64
2022/07/25 08:37:35;;;;;;;;;5.50;4.50;;;;;-146.44;100.00;58906.56;5076308;27;45434;-65
2022/07/25 08:40:01;;;;;;;;;2.25;2.00;;;;;-146.44;100.00;58906.56;5076719;28;45497;-65
2022/07/25 08:42:26;;;;;;;;;2.00;2.00;;;;;-146.44;100.00;58906.56;5076606;28;45403;-65
2022/07/25 08:45:01;;;;;;;;;1.00;1.00;;;;;-146.44;100.00;58906.56;5076539;28;45500;-65
2022/07/25 08:47:28;;;;;;;;;3.00;1.75;;;;;-146.44;100.00;58906.56;5076253;28;45491;-65
2022/07/25 08:49:55;;;;;;;;;2.00;2.00;;;;;-146.44;100.00;58906.56;5076489;27;45437;-65
2022/07/25 08:52:21;;;;;;;;;1.00;1.00;;;;;-146.44;100.00;58906.56;5076487;27;45355;-65
2022/07/25 08:54:48;;;;;;;;;1.00;1.00;;;;;-146.44;100.00;58906.56;5076241;28;45604;-65
2022/07/25 08:57:14;;;;;;;;;2.00;2.00;;;;;-146.44;100.00;58906.56;5076051;28;45474;-65
2022/07/25 08:59:40;;;;;;;;;2.00;2.00;;;;;-146.44;100.00;58906.56;5074539;28;45371;-65
2022/07/25 09:02:07;;;;;;;;;4.00;3.00;;;;;-146.44;100.00;58906.56;5076007;28;45386;-65
2022/07/25 09:04:36;;;;;;;;;3.00;2.00;;;;;-146.44;100.00;58906.56;5075839;27;45473;-65
2022/07/25 09:07:03;;;;;;;;;2.00;2.00;;;;;-146.44;100.00;58906.56;5074369;28;46795;-65
2022/07/25 09:09:33;;;;;;;;;3.00;3.00;;;;;-146.44;100.00;58906.56;5076219;28;45428;-65
2022/07/25 09:11:59;;;;;;;;;6.00;5.00;;;;;-146.44;100.00;58906.56;5076300;28;45502;-64
2022/07/25 09:14:25;;;;;;;;;2.00;2.00;;;;;-146.44;100.00;58906.56;5075898;27;45595;-64
2022/07/25 09:16:51;;;;;;;;;3.50;2.75;;;;;-146.44;100.00;58906.56;5075645;28;45376;-64
2022/07/25 09:19:21;;;;;;;;;2.75;2.00;;;;;-146.44;100.00;58906.56;5076030;27;45425;-65
2022/07/25 09:22:19;;;;;;;;;2.60;2.60;;;;;-146.44;100.00;58906.56;5076125;27;45467;-64
2022/07/25 09:24:45;;;;;;;;;3.00;3.00;;;;;-146.44;100.00;58906.56;5062812;27;45528;-65
2022/07/25 09:27:11;;;;;;;;;1.50;1.50;;;;;-146.44;100.00;58906.56;5075512;27;45397;-65
2022/07/25 09:29:38;;;;;;;;;3.50;3.00;;;;;-146.44;100.00;58906.56;5075913;28;45350;-64
2022/07/25 09:32:33;;;;;;;;;5.00;3.40;;;;;-146.44;100.00;58906.56;5075983;27;45385;-65
2022/07/25 09:34:58;;;;;;;;;3.00;1.25;;;;;-146.44;100.00;58906.56;5071020;27;45541;-65
2022/07/25 09:37:26;;;;;;;;;2.00;2.00;;;;;-146.44;100.00;58906.56;5075803;27;48820;-65
2022/07/25 09:39:51;;;;;;;;;2.60;2.60;;;;;-146.44;100.00;58906.56;5075590;28;45436;-65
2022/07/25 09:42:31;;;;;;;;;4.00;2.50;;;;;-146.44;100.00;58906.56;5075897;28;45494;-65
2022/07/25 09:45:06;;;;;;;;;2.00;2.00;;;;;-146.44;100.00;58906.56;5075677;28;45448;-65
2022/07/25 09:47:35;;;;;;;;;3.00;3.00;;;;;-146.44;100.00;58906.56;5075210;27;45508;-64
2022/07/25 09:50:01;;;;;;;;;2.20;2.20;;;;;-146.44;100.00;58906.56;5075583;27;45409;-64
2022/07/25 09:52:26;;;;;;;;;2.20;2.20;;;;;-146.44;100.00;58906.56;5075724;27;45591;-64
2022/07/25 09:54:53;;;;;;;;;2.50;2.25;;;;;-146.44;100.00;58906.56;5074281;28;45385;-64
2022/07/25 09:57:20;;;;;;;;;2.25;2.25;;;;;-146.44;100.00;58906.56;5075488;28;45457;-64
2022/07/25 09:59:45;;;;;;;;;1.80;1.80;;;;;-146.44;100.00;58906.56;5075402;27;45493;-64
2022/07/25 10:02:39;;;;;;;;;2.00;2.00;;;;;-146.44;100.00;58906.56;5075565;27;45759;-64
2022/07/25 10:05:17;;;;;;;;;2.25;2.25;;;;;-146.44;100.00;58906.56;5075254;28;45654;-64
2022/07/25 10:07:49;;;;;;;;;3.25;3.25;;;;;-146.44;100.00;58906.56;5074187;27;45586;-64
2022/07/25 10:10:41;;;;;;;;;5.00;5.00;;;;;-146.44;100.00;58906.56;5074962;28;45373;-64
2022/07/25 10:13:10;;;;;;;;;33.33;30.00;;;;;-146.44;100.00;58906.56;5073841;27;45559;-64
2022/07/25 10:15:40;;;;;;;;;2.75;2.75;;;;;-146.44;100.00;58906.56;5074873;27;45513;-64
2022/07/25 10:18:07;;;;;;;;;3.40;1.80;;;;;-146.44;100.00;58906.56;5075264;27;45426;-64
2022/07/25 10:20:33;;;;;;;;;4.00;4.00;;;;;-146.44;100.00;58906.56;5074922;27;45475;-63
2022/07/25 10:22:58;;;;;;;;;3.60;3.60;;;;;-146.44;100.00;58906.56;5075021;27;45532;-64
2022/07/25 10:25:24;;;;;;;;;3.00;3.00;;;;;-146.44;100.00;58906.56;5075130;28;45344;-64
2022/07/25 10:27:58;;;;;;;;;2.00;2.00;;;;;-146.44;100.00;58906.56;5074662;28;46200;-64
2022/07/25 10:30:26;;;;;;;;;3.80;3.00;;;;;-146.44;100.00;58906.56;5090277;27;45683;-64
2022/07/25 10:32:59;;;;;;;;;1.60;1.60;;;;;-146.44;100.00;58906.56;5074770;28;45426;-63
2022/07/25 10:35:26;;;;;;;;;3.00;3.00;;;;;-146.44;100.00;58906.56;5074861;28;45388;-63
2022/07/25 10:37:54;;;;;;;;;2.00;2.00;;;;;-146.44;100.00;58906.56;5076813;27;45382;-66
2022/07/25 10:40:36;;;;;;;;;3.20;3.20;;;;;-146.44;100.00;58906.56;5078258;27;45374;-64
2022/07/25 10:43:04;;;;;;;;;2.60;2.60;;;;;-146.44;100.00;58906.56;5078263;27;45409;-64
2022/07/25 10:45:57;;;;;;;;;3.00;3.00;;;;;-146.44;100.00;58906.56;5077165;28;45535;-65
2022/07/25 10:48:25;;;;;;;;;3.00;3.00;;;;;-146.44;100.00;58906.56;5077561;27;46100;-63
2022/07/25 10:50:59;;;;;;;;;3.20;3.00;;;;;-146.44;100.00;58906.56;5077797;28;45376;-64
2022/07/25 10:53:37;;;;;;;;;3.20;3.20;;;;;-146.44;100.00;58906.56;5078044;27;45497;-64
2022/07/25 10:56:08;;;;;;;;;5.25;5.00;;;;;-146.44;100.00;58906.56;5077970;27;45424;-64
2022/07/25 10:58:48;;;;;;;;;3.00;3.00;;;;;-146.44;100.00;58906.56;5077548;27;45384;-64
2022/07/25 11:01:23;;;;;;;;;4.40;3.00;;;;;-146.44;100.00;58906.56;5077691;27;45359;-64
2022/07/25 11:03:50;;;;;;;;;3.00;3.00;;;;;-146.44;100.00;58906.56;5077744;27;45421;-64
2022/07/25 11:06:27;;;;;;;;;3.25;3.25;;;;;-146.44;100.00;58906.56;5077791;28;45648;-65